Friday, July 20, 2018, 11:41 AM CDT
Back to Local

KGBD, Great Bend, Great Bend Municipal Airport

Location: Great Bend, KS, United States Lat: 38.35
Local Time: 11:41 AM CDT (16:41 GMT) Lon: -98.867
Time Zone: US/Central Elev: 1886 ft

Show me the last for .
Show Decoded

2018-07-20 10:56 METAR KGBD 201556Z AUTO 10009KT 10SM CLR 32/21 A2990 RMK AO2 SLP102 T03170211 =
2018-07-20 09:56 METAR KGBD 201456Z AUTO 11004KT 10SM CLR 29/22 A2993 RMK AO2 SLP112 T02890217
                 50010 TSNO =
2018-07-20 08:56 METAR KGBD 201356Z AUTO 00000KT 10SM CLR 26/22 A2994 RMK AO2 SLP118 T02610217 =
2018-07-20 07:56 METAR KGBD 201256Z AUTO 00000KT 10SM CLR 24/21 A2992 RMK AO2 SLP110 T02390206 =
2018-07-20 06:56 METAR KGBD 201156Z AUTO 00000KT 6SM BR CLR 22/20 A2990 RMK AO2 SLP102 T02220200
                 10244 20217 53004 =
2018-07-20 05:56 METAR KGBD 201056Z AUTO 08008KT 10SM CLR 23/20 A2988 RMK AO2 SLP096 T02280200 =
2018-07-20 04:56 METAR KGBD 200956Z AUTO 00000KT 10SM CLR 23/20 A2990 RMK AO2 SLP102 T02280200 =
2018-07-20 03:56 METAR KGBD 200856Z AUTO 11004KT 10SM CLR 23/20 A2988 RMK AO2 SLP097 T02330200
                 55002 =
2018-07-20 02:56 METAR KGBD 200756Z AUTO 05011KT 10SM CLR 23/21 A2987 RMK AO2 SLP091 T02330206 =
2018-07-20 01:56 METAR KGBD 200656Z AUTO 04004KT 10SM CLR 24/21 A2988 RMK AO2 SLP093 T02390206 =
2018-07-20 00:56 METAR KGBD 200556Z AUTO 23004KT 10SM CLR 24/21 A2989 RMK AO2 SLP099 T02390206
                 10328 20239 403670211 53006 =
2018-07-19 23:56 METAR KGBD 200456Z AUTO 18003KT 10SM CLR 26/20 A2988 RMK AO2 SLP097 T02560200 =
2018-07-19 22:56 METAR KGBD 200356Z AUTO 11009KT 10SM CLR 27/20 A2987 RMK AO2 SLP092 T02720200 =
2018-07-19 21:56 METAR KGBD 200256Z AUTO 09008KT 10SM CLR 28/21 A2987 RMK AO2 SLP093 T02780206
                 51007 =
2018-07-19 20:56 METAR KGBD 200156Z AUTO 09006KT 10SM CLR 30/21 A2987 RMK AO2 SLP091 T03000211 =
2018-07-19 19:56 METAR KGBD 200056Z AUTO 08009KT 10SM CLR 32/22 A2986 RMK AO2 SLP091 T03170217 =
2018-07-19 18:56 METAR KGBD 192356Z AUTO 09009KT 10SM CLR 32/21 A2985 RMK AO2 SLP087 T03220211
                 10367 20322 55002 =
2018-07-19 17:56 METAR KGBD 192256Z AUTO 08010G16KT 10SM CLR 33/21 A2985 RMK AO2 SLP086 T03330206
                 =
2018-07-19 16:56 METAR KGBD 192156Z AUTO 09015KT 10SM CLR 33/20 A2984 RMK AO2 SLP085 T03330200 =
2018-07-19 15:56 METAR KGBD 192056Z AUTO 08019G24KT 10SM CLR 34/21 A2986 RMK AO2 SLP089 T03390211
                 58006 =
2018-07-19 14:56 METAR KGBD 191956Z AUTO 05008KT 10SM CLR 36/21 A2986 RMK AO2 SLP090 T03610206 =
2018-07-19 13:56 METAR KGBD 191856Z AUTO 31005KT 10SM CLR 36/21 A2988 RMK AO2 SLP096 T03560206 =
2018-07-19 12:56 METAR KGBD 191756Z AUTO 21007KT 10SM CLR 35/22 A2988 RMK AO2 SLP094 T03500217
                 10350 20217 58010 =
2018-07-19 11:56 METAR KGBD 191656Z AUTO 25007KT 10SM CLR 33/22 A2989 RMK AO2 SLP099 T03330217 =

Support USWX by starting your Amazon purchase here.